Time;durP1;ratioP1;P1;durP2;ratioP2;P2;SDS_P1;SDS_P2;PMS_P1;PMS_P2;Temp;Humidity;BMP_temperature;BMP_pressure;BME280_temperature;BME280_humidity;BME280_pressure;Samples;Min_cycle;Max_cycle;Signal;HPM_P1;HPM_P2
2023/04/25 00:01:46;;;;;;;5.72;3.03;;;;;;;13.22;100.00;99409.69;5108750;27;20023;-34
2023/04/25 00:04:11;;;;;;;6.18;3.10;;;;;;;13.21;100.00;99407.25;5107973;28;20798;-33
2023/04/25 00:06:37;;;;;;;5.97;3.45;;;;;;;13.21;100.00;99396.56;5108284;27;20108;-34
2023/04/25 00:09:06;;;;;;;5.70;3.80;;;;;;;13.31;100.00;99393.22;5108194;28;20573;-33
2023/04/25 00:11:32;;;;;;;8.07;3.75;;;;;;;13.33;100.00;99380.38;5108094;28;20024;-35
2023/04/25 00:13:59;;;;;;;6.28;3.67;;;;;;;13.53;100.00;99379.75;5105714;27;20061;-33
2023/04/25 00:16:25;;;;;;;7.50;3.80;;;;;;;13.19;100.00;99366.56;5100194;27;20047;-33
2023/04/25 00:18:53;;;;;;;6.88;3.65;;;;;;;13.26;100.00;99381.34;5088266;28;20077;-33
2023/04/25 00:21:20;;;;;;;5.88;3.70;;;;;;;13.52;100.00;99367.41;5087891;28;20463;-33
2023/04/25 00:23:46;;;;;;;5.88;3.58;;;;;;;13.81;100.00;99365.22;5087754;28;20024;-33
2023/04/25 00:26:12;;;;;;;6.68;3.80;;;;;;;13.94;100.00;99354.06;5087820;28;20031;-35
2023/04/25 00:28:37;;;;;;;7.78;4.10;;;;;;;13.93;100.00;99357.00;5087738;28;20543;-33
2023/04/25 00:31:03;;;;;;;5.32;3.53;;;;;;;13.73;100.00;99353.13;5087968;28;20028;-34
2023/04/25 00:33:29;;;;;;;7.45;3.85;;;;;;;14.01;100.00;99343.91;5087738;28;20050;-33
2023/04/25 00:35:55;;;;;;;9.20;4.47;;;;;;;14.13;100.00;99350.97;5087617;28;20432;-33
2023/04/25 00:38:21;;;;;;;7.45;4.50;;;;;;;14.01;100.00;99335.06;5087962;28;20048;-33
2023/04/25 00:40:46;;;;;;;7.22;5.20;;;;;;;14.15;100.00;99332.72;5087532;28;20462;-33
2023/04/25 00:43:12;;;;;;;7.10;4.88;;;;;;;14.00;100.00;99334.25;5087648;28;20020;-34
2023/04/25 00:45:39;;;;;;;9.75;5.18;;;;;;;13.59;100.00;99323.28;5087651;28;20093;-33
2023/04/25 00:48:05;;;;;;;9.55;5.75;;;;;;;13.50;100.00;99332.84;5087232;28;20020;-34
2023/04/25 00:50:30;;;;;;;8.05;5.88;;;;;;;13.63;100.00;99327.06;5087331;28;20028;-34
2023/04/25 00:52:56;;;;;;;11.32;5.75;;;;;;;13.84;100.00;99321.84;5087336;28;20044;-33
2023/04/25 00:55:22;;;;;;;11.13;6.22;;;;;;;13.65;100.00;99311.53;5087169;28;20717;-33
2023/04/25 00:57:47;;;;;;;8.43;5.85;;;;;;;13.69;100.00;99319.03;5087126;28;20536;-33
2023/04/25 01:00:14;;;;;;;9.48;6.28;;;;;;;13.89;100.00;99303.09;5086708;28;20024;-33
2023/04/25 01:02:41;;;;;;;10.82;6.65;;;;;;;13.53;100.00;99308.22;5087159;28;20024;-32
2023/04/25 01:05:07;;;;;;;11.10;8.60;;;;;;;13.47;100.00;99317.28;5087341;28;20047;-34
2023/04/25 01:07:33;;;;;;;18.75;14.95;;;;;;;13.38;100.00;99313.47;5086567;28;20050;-33
2023/04/25 01:09:59;;;;;;;16.08;10.30;;;;;;;13.63;100.00;99315.53;5086912;28;20034;-33
2023/04/25 01:12:24;;;;;;;11.02;7.68;;;;;;;13.43;100.00;99321.53;5086940;28;20027;-33
2023/04/25 01:14:50;;;;;;;11.48;7.32;;;;;;;13.39;100.00;99321.25;5086976;28;20039;-33
2023/04/25 01:17:17;;;;;;;13.35;7.40;;;;;;;13.44;100.00;99317.78;5087056;28;20039;-32
2023/04/25 01:19:43;;;;;;;10.75;7.85;;;;;;;13.52;100.00;99303.91;5086905;28;20036;-34
2023/04/25 01:22:10;;;;;;;13.15;10.02;;;;;;;13.32;100.00;99315.31;5087119;28;20028;-32
2023/04/25 01:24:37;;;;;;;9.38;7.03;;;;;;;13.13;100.00;99303.31;5086495;28;20051;-32
2023/04/25 01:27:02;;;;;;;10.07;5.15;;;;;;;13.47;100.00;99306.56;5086528;28;20570;-34
2023/04/25 01:29:28;;;;;;;8.60;5.70;;;;;;;13.48;100.00;99294.78;5102013;28;20031;-33
2023/04/25 01:31:54;;;;;;;8.13;5.10;;;;;;;13.15;100.00;99293.97;5086603;28;20031;-34
2023/04/25 01:34:20;;;;;;;8.07;4.57;;;;;;;12.88;100.00;99303.88;5086493;28;20074;-33
2023/04/25 01:36:49;;;;;;;7.35;4.10;;;;;;;12.93;100.00;99295.91;5086040;28;20027;-33
2023/04/25 01:39:15;;;;;;;8.02;4.63;;;;;;;13.18;100.00;99288.09;5086373;28;20508;-33
2023/04/25 01:41:41;;;;;;;6.75;4.32;;;;;;;13.23;100.00;99290.81;5086248;28;20115;-33
2023/04/25 01:44:06;;;;;;;8.70;4.88;;;;;;;13.20;100.00;99277.16;5086595;28;20026;-34
2023/04/25 01:46:33;;;;;;;7.80;5.43;;;;;;;13.31;100.00;99275.38;5086330;28;20028;-33
2023/04/25 01:48:59;;;;;;;7.82;5.22;;;;;;;13.44;100.00;99265.06;5086186;28;20042;-33
2023/04/25 01:51:24;;;;;;;9.45;5.18;;;;;;;13.49;100.00;99274.19;5086102;28;20024;-33
2023/04/25 01:53:50;;;;;;;8.93;5.22;;;;;;;13.43;100.00;99270.66;5086053;28;20484;-33
2023/04/25 01:56:17;;;;;;;9.20;5.68;;;;;;;13.44;100.00;99275.75;5086273;28;20028;-33
2023/04/25 01:58:43;;;;;;;7.97;5.50;;;;;;;13.39;100.00;99278.38;5085875;28;20514;-34
2023/04/25 02:01:08;;;;;;;8.98;6.43;;;;;;;13.64;100.00;99269.72;5086171;28;20046;-32
2023/04/25 02:03:34;;;;;;;9.98;6.72;;;;;;;13.66;100.00;99266.78;5086053;28;20408;-33
2023/04/25 02:06:00;;;;;;;10.90;6.93;;;;;;;13.58;100.00;99268.06;5086146;28;20046;-34
2023/04/25 02:08:26;;;;;;;11.43;7.47;;;;;;;13.49;100.00;99277.66;5085780;28;20043;-33
2023/04/25 02:10:52;;;;;;;13.65;9.85;;;;;;;13.47;100.00;99274.44;5085422;28;20024;-32
2023/04/25 02:13:17;;;;;;;15.20;10.25;;;;;;;13.47;100.00;99261.03;5087481;28;20834;-33
2023/04/25 02:15:43;;;;;;;12.90;9.30;;;;;;;13.42;100.00;99277.06;5111520;27;20143;-34
2023/04/25 02:18:10;;;;;;;16.35;10.68;;;;;;;13.00;100.00;99280.44;5126304;27;20484;-33
2023/04/25 02:20:36;;;;;;;16.17;12.00;;;;;;;12.68;100.00;99281.19;5126552;27;20035;-33
2023/04/25 02:23:02;;;;;;;14.50;9.38;;;;;;;12.75;100.00;99268.44;5126797;27;20105;-33
2023/04/25 02:25:27;;;;;;;12.27;8.73;;;;;;;12.74;100.00;99288.22;5126618;27;20050;-33
2023/04/25 02:27:53;;;;;;;14.68;10.38;;;;;;;12.62;100.00;99276.88;5126694;27;20477;-34
2023/04/25 02:30:19;;;;;;;14.23;9.25;;;;;;;13.02;100.00;99271.09;5126696;27;20038;-32
2023/04/25 02:32:45;;;;;;;12.25;8.57;;;;;;;13.18;100.00;99271.25;5126543;27;20027;-33
2023/04/25 02:35:10;;;;;;;11.05;8.13;;;;;;;13.18;100.00;99271.25;5126495;27;20034;-33
2023/04/25 02:37:37;;;;;;;11.82;8.63;;;;;;;13.40;100.00;99263.13;5126545;27;20031;-33
2023/04/25 02:40:04;;;;;;;11.35;8.52;;;;;;;13.24;100.00;99251.47;5126795;27;20030;-32
2023/04/25 02:42:29;;;;;;;12.52;8.93;;;;;;;13.14;100.00;99251.41;5126268;27;20023;-32
2023/04/25 02:44:55;;;;;;;13.57;9.35;;;;;;;13.32;100.00;99274.31;5126422;27;20031;-33
2023/04/25 02:47:20;;;;;;;11.95;8.18;;;;;;;13.16;100.00;99271.50;5126442;27;20084;-33
2023/04/25 02:49:46;;;;;;;10.27;7.07;;;;;;;13.26;100.00;99279.59;5126245;27;20023;-33
2023/04/25 02:52:12;;;;;;;10.95;7.00;;;;;;;13.22;100.00;99291.88;5126349;27;20019;-33
2023/04/25 02:54:38;;;;;;;10.35;7.47;;;;;;;13.14;100.00;99278.97;5126226;27;20114;-33
2023/04/25 02:57:04;;;;;;;9.40;6.78;;;;;;;13.28;100.00;99290.06;5126636;27;20031;-33
2023/04/25 02:59:29;;;;;;;8.93;6.13;;;;;;;13.00;100.00;99275.91;5126028;27;20492;-33
2023/04/25 03:01:55;;;;;;;8.68;5.63;;;;;;;12.65;100.00;99263.81;5126369;27;20426;-33
2023/04/25 03:04:20;;;;;;;9.60;6.20;;;;;;;13.07;100.00;99281.03;5126109;27;20464;-34
2023/04/25 03:06:46;;;;;;;9.68;5.97;;;;;;;12.84;100.00;99288.31;5118990;27;20031;-33
2023/04/25 03:09:12;;;;;;;10.30;6.18;;;;;;;12.61;100.00;99288.63;5105464;28;20047;-33
2023/04/25 03:11:38;;;;;;;9.20;5.70;;;;;;;12.80;100.00;99297.91;5105596;28;20427;-34
2023/04/25 03:14:04;;;;;;;28.55;22.45;;;;;;;13.04;100.00;99287.72;5105967;28;20032;-33
2023/04/25 03:16:30;;;;;;;10.90;8.40;;;;;;;12.96;100.00;99285.50;5105339;28;20023;-34
2023/04/25 03:18:57;;;;;;;14.85;7.13;;;;;;;13.10;100.00;99274.38;5105344;28;20051;-35
2023/04/25 03:21:23;;;;;;;9.30;6.22;;;;;;;12.97;100.00;99276.41;5105304;28;20023;-33
2023/04/25 03:23:48;;;;;;;8.75;6.70;;;;;;;12.81;100.00;99270.13;5108572;28;20091;-33
2023/04/25 03:26:13;;;;;;;11.43;7.00;;;;;;;12.66;100.00;99269.94;5108778;28;20023;-33
2023/04/25 03:28:40;;;;;;;10.27;6.13;;;;;;;12.98;100.00;99283.38;5109507;28;20019;-33
2023/04/25 03:31:05;;;;;;;9.20;6.70;;;;;;;13.11;100.00;99286.69;5109234;28;20027;-33
2023/04/25 03:33:31;;;;;;;9.85;7.10;;;;;;;13.10;100.00;99285.06;5109085;28;20105;-34
2023/04/25 03:35:56;;;;;;;9.68;6.50;;;;;;;13.07;100.00;99291.75;5109082;28;20028;-33
2023/04/25 03:38:21;;;;;;;9.98;6.65;;;;;;;12.88;100.00;99293.19;5108890;28;20031;-34
2023/04/25 03:40:47;;;;;;;9.98;6.40;;;;;;;12.65;100.00;99281.72;5109428;28;20015;-33
2023/04/25 03:43:12;;;;;;;10.35;6.40;;;;;;;12.62;100.00;99291.03;5109037;27;20032;-33
2023/04/25 03:45:38;;;;;;;8.35;5.90;;;;;;;12.70;100.00;99291.66;5108963;28;20020;-33
2023/04/25 03:48:03;;;;;;;9.38;5.82;;;;;;;12.83;100.00;99292.06;5108808;28;20030;-33
2023/04/25 03:50:29;;;;;;;9.23;6.57;;;;;;;12.74;100.00;99276.72;5109104;28;20028;-33
2023/04/25 03:52:54;;;;;;;8.88;5.63;;;;;;;13.11;100.00;99292.84;5108654;28;20519;-33
2023/04/25 03:55:20;;;;;;;10.05;5.95;;;;;;;13.09;100.00;99289.63;5108619;28;20288;-33
2023/04/25 03:57:46;;;;;;;9.82;6.75;;;;;;;12.99;100.00;99268.13;5108856;28;20039;-33
2023/04/25 04:00:12;;;;;;;9.98;7.05;;;;;;;13.17;100.00;99294.50;5108668;28;20085;-33
2023/04/25 04:02:38;;;;;;;9.93;6.55;;;;;;;13.29;100.00;99298.91;5108803;28;20019;-34
2023/04/25 04:05:05;;;;;;;10.30;5.82;;;;;;;13.23;100.00;99290.81;5108072;28;20409;-33
2023/04/25 04:07:32;;;;;;;9.50;6.70;;;;;;;13.31;100.00;99296.81;5108202;28;20040;-34
2023/04/25 04:09:58;;;;;;;11.82;6.65;;;;;;;13.42;100.00;99279.75;5108222;28;20038;-34
2023/04/25 04:12:23;;;;;;;12.15;6.97;;;;;;;13.24;100.00;99265.66;5108606;28;20770;-33
2023/04/25 04:14:49;;;;;;;9.85;6.00;;;;;;;13.21;100.00;99279.56;5103628;27;20076;-33
2023/04/25 04:17:14;;;;;;;10.57;5.95;;;;;;;13.35;100.00;99279.16;5114176;27;20100;-33
2023/04/25 04:19:40;;;;;;;11.30;6.07;;;;;;;13.43;100.00;99281.38;5121470;27;20129;-34
2023/04/25 04:22:05;;;;;;;9.50;5.47;;;;;;;13.43;100.00;99274.13;5117292;27;20038;-33
2023/04/25 04:24:31;;;;;;;9.10;5.63;;;;;;;13.40;100.00;99280.03;5105003;27;20024;-34
2023/04/25 04:26:56;;;;;;;10.70;5.95;;;;;;;13.26;100.00;99295.66;5126910;27;20042;-35
2023/04/25 04:29:22;;;;;;;10.52;5.97;;;;;;;13.22;100.00;99291.88;5128478;27;20818;-34
2023/04/25 04:31:52;;;;;;;9.32;5.82;;;;;;;12.94;100.00;99292.97;5128575;27;20115;-32
2023/04/25 04:34:18;;;;;;;10.55;6.40;;;;;;;12.53;100.00;99297.09;5127639;27;20031;-34
2023/04/25 04:36:48;;;;;;;8.68;5.75;;;;;;;12.51;100.00;99291.19;5128409;27;20027;-33
2023/04/25 04:39:14;;;;;;;8.60;5.93;;;;;;;12.70;100.00;99291.66;5128138;27;20059;-34
2023/04/25 04:41:40;;;;;;;11.65;6.18;;;;;;;12.83;100.00;99286.72;5128478;27;20023;-34
2023/04/25 04:44:06;;;;;;;8.70;6.03;;;;;;;12.90;100.00;99291.06;5128080;27;20076;-33
2023/04/25 04:46:37;;;;;;;8.80;6.05;;;;;;;12.88;100.00;99277.94;5128454;27;20176;-33
2023/04/25 04:49:04;;;;;;;10.95;6.15;;;;;;;13.03;100.00;99290.63;5128201;27;20031;-33
2023/04/25 04:51:31;;;;;;;10.30;6.87;;;;;;;13.05;100.00;99288.50;5127846;27;20027;-33
2023/04/25 04:53:58;;;;;;;11.15;6.75;;;;;;;13.57;100.00;99293.25;5128205;27;20261;-33
2023/04/25 04:56:25;;;;;;;11.50;6.70;;;;;;;13.64;100.00;99285.78;5127983;27;20019;-33
2023/04/25 04:58:51;;;;;;;9.32;6.55;;;;;;;13.82;100.00;99287.25;5128069;27;20033;-33
2023/04/25 05:01:16;;;;;;;11.30;7.10;;;;;;;13.88;100.00;99298.81;5127746;27;20031;-34
2023/04/25 05:03:41;;;;;;;10.65;7.43;;;;;;;13.64;100.00;99301.06;5128142;27;20019;-34
2023/04/25 05:06:08;;;;;;;10.35;7.18;;;;;;;13.33;100.00;99286.66;5128219;27;20020;-31
2023/04/25 05:08:34;;;;;;;10.38;7.13;;;;;;;13.43;100.00;99300.91;5127738;27;20090;-31
2023/04/25 05:10:59;;;;;;;11.52;6.80;;;;;;;13.85;100.00;99293.97;5127895;27;20608;-31
2023/04/25 05:13:25;;;;;;;8.73;6.45;;;;;;;13.94;100.00;99284.38;5127799;27;20034;-31
2023/04/25 05:15:50;;;;;;;10.68;6.43;;;;;;;13.54;100.00;99285.72;5127458;27;20023;-31
2023/04/25 05:18:15;;;;;;;8.88;6.00;;;;;;;13.41;100.00;99295.00;5127613;27;20076;-30
2023/04/25 05:20:41;;;;;;;8.63;5.85;;;;;;;13.46;100.00;99299.59;5127481;27;20053;-31
2023/04/25 05:23:06;;;;;;;10.15;6.60;;;;;;;13.74;100.00;99295.78;5127185;27;20409;-31
2023/04/25 05:25:32;;;;;;;9.25;6.57;;;;;;;13.83;100.00;99298.75;5127451;27;20077;-33
2023/04/25 05:27:58;;;;;;;10.68;7.28;;;;;;;13.81;100.00;99290.19;5127456;27;20027;-34
2023/04/25 05:30:23;;;;;;;14.05;8.70;;;;;;;14.16;100.00;99302.16;5127352;27;20084;-33
2023/04/25 05:32:49;;;;;;;15.52;10.70;;;;;;;13.70;100.00;99301.91;5127266;27;20030;-33
2023/04/25 05:35:14;;;;;;;13.90;9.23;;;;;;;14.03;100.00;99298.88;5126964;27;20031;-33
2023/04/25 05:37:40;;;;;;;14.75;10.73;;;;;;;14.38;100.00;99292.06;5126652;27;20079;-33
2023/04/25 05:40:06;;;;;;;14.18;9.63;;;;;;;14.20;100.00;99292.53;5126844;27;20068;-34
2023/04/25 05:42:32;;;;;;;15.93;10.10;;;;;;;13.71;100.00;99290.13;5127051;27;20023;-33
2023/04/25 05:44:58;;;;;;;15.35;9.77;;;;;;;13.50;100.00;99295.34;5127089;27;20034;-34
2023/04/25 05:47:23;;;;;;;14.45;9.93;;;;;;;13.41;100.00;99280.81;5126909;27;20067;-33
2023/04/25 05:49:48;;;;;;;15.10;9.35;;;;;;;13.48;100.00;99291.31;5127015;27;20035;-34
2023/04/25 05:52:14;;;;;;;14.75;9.57;;;;;;;13.66;100.00;99289.00;5109778;27;20729;-33
2023/04/25 05:54:40;;;;;;;14.10;9.88;;;;;;;14.10;100.00;99287.94;5106434;28;20431;-33
2023/04/25 05:57:06;;;;;;;15.23;9.93;;;;;;;14.16;100.00;99278.03;5106222;28;20047;-33
2023/04/25 05:59:31;;;;;;;16.45;10.90;;;;;;;14.17;100.00;99287.69;5113860;27;20041;-32
2023/04/25 06:01:57;;;;;;;14.23;9.05;;;;;;;14.23;100.00;99275.94;5106177;28;20035;-35
2023/04/25 06:04:22;;;;;;;14.80;9.93;;;;;;;14.41;100.00;99288.06;5106072;28;20034;-34
2023/04/25 06:06:48;;;;;;;14.50;9.93;;;;;;;14.33;100.00;99285.88;5124357;27;20054;-33
2023/04/25 06:09:13;;;;;;;13.63;9.43;;;;;;;14.29;100.00;99280.25;5126859;27;20049;-32
2023/04/25 06:11:38;;;;;;;14.65;9.60;;;;;;;14.34;100.00;99288.28;5115021;27;20027;-33
2023/04/25 06:14:04;;;;;;;14.45;10.00;;;;;;;14.62;100.00;99288.97;5126746;27;20031;-34
2023/04/25 06:16:29;;;;;;;14.85;10.30;;;;;;;14.89;100.00;99291.41;5126038;27;20031;-32
2023/04/25 06:18:55;;;;;;;13.13;9.50;;;;;;;14.94;100.00;99286.06;5125523;27;20068;-33
2023/04/25 06:21:20;;;;;;;14.45;9.25;;;;;;;14.96;100.00;99280.44;5126485;27;20510;-33
2023/04/25 06:23:45;;;;;;;17.15;10.20;;;;;;;15.13;100.00;99282.88;5122700;27;20069;-32
2023/04/25 06:26:11;;;;;;;13.68;9.93;;;;;;;14.96;100.00;99285.81;5109601;27;20156;-33
2023/04/25 06:28:36;;;;;;;14.13;10.48;;;;;;;14.70;100.00;99288.44;5120866;27;20023;-34
2023/04/25 06:31:02;;;;;;;19.33;12.10;;;;;;;14.82;100.00;99283.63;5120436;28;20031;-32
2023/04/25 06:33:27;;;;;;;15.98;11.25;;;;;;;15.02;100.00;99276.69;5105575;28;20101;-32
2023/04/25 06:35:53;;;;;;;15.48;10.25;;;;;;;14.68;100.00;99266.44;5102548;28;20027;-33
2023/04/25 06:38:18;;;;;;;14.13;9.60;;;;;;;14.99;100.00;99277.22;5123034;28;20023;-33
2023/04/25 06:40:43;;;;;;;13.35;10.23;;;;;;;14.87;100.00;99269.41;5126494;28;20034;-34
2023/04/25 06:43:09;;;;;;;15.98;11.25;;;;;;;15.06;100.00;99285.81;5126259;28;20038;-33
2023/04/25 06:45:35;;;;;;;18.10;12.10;;;;;;;15.15;100.00;99283.41;5126341;27;20031;-33
2023/04/25 06:48:00;;;;;;;17.15;12.15;;;;;;;15.31;100.00;99289.59;5126444;28;20092;-33
2023/04/25 06:50:25;;;;;;;14.85;10.70;;;;;;;15.47;100.00;99277.75;5126283;27;20457;-32
2023/04/25 06:52:51;;;;;;;15.55;10.73;;;;;;;15.43;100.00;99266.75;5125357;27;20615;-33
2023/04/25 06:55:16;;;;;;;18.67;11.38;;;;;;;15.64;100.00;99272.88;5094120;28;20039;-33
2023/04/25 06:57:42;;;;;;;14.38;10.85;;;;;;;15.70;100.00;99275.56;5106940;28;20035;-34
2023/04/25 07:00:09;;;;;;;18.60;12.57;;;;;;;15.81;100.00;99272.63;5109550;28;20528;-32
2023/04/25 07:02:35;;;;;;;17.30;12.07;;;;;;;15.74;100.00;99276.69;5110145;28;20729;-33
2023/04/25 07:05:03;;;;;;;15.52;11.65;;;;;;;15.50;100.00;99271.84;5109587;28;20046;-32
2023/04/25 07:07:30;;;;;;;16.23;11.65;;;;;;;15.93;100.00;99263.44;5109775;28;20154;-33
2023/04/25 07:09:55;;;;;;;16.00;11.05;;;;;;;15.78;100.00;99258.94;5109704;28;20073;-33
2023/04/25 07:12:21;;;;;;;16.70;11.63;;;;;;;15.77;100.00;99260.00;5109351;28;20054;-35
2023/04/25 07:14:46;;;;;;;14.82;11.35;;;;;;;15.77;100.00;99249.25;5109644;28;20100;-33
2023/04/25 07:17:12;;;;;;;16.73;12.77;;;;;;;15.89;100.00;99252.44;5109106;28;20084;-33
2023/04/25 07:19:39;;;;;;;18.65;13.32;;;;;;;16.04;100.00;99238.94;5109502;28;20134;-32
2023/04/25 07:22:05;;;;;;;17.25;13.52;;;;;;;16.24;100.00;99245.28;5109424;28;20024;-33
2023/04/25 07:24:30;;;;;;;18.65;14.10;;;;;;;16.51;100.00;99257.53;5109508;28;20055;-33
2023/04/25 07:26:56;;;;;;;20.60;13.95;;;;;;;16.60;100.00;99255.88;5109261;28;20024;-32
2023/04/25 07:29:21;;;;;;;20.83;14.43;;;;;;;16.90;100.00;99265.69;5109138;28;20024;-34
2023/04/25 07:31:47;;;;;;;17.42;13.40;;;;;;;16.65;100.00;99242.38;5109240;28;20073;-33
2023/04/25 07:34:13;;;;;;;16.98;13.02;;;;;;;17.11;99.70;99260.94;5109084;28;20023;-34
2023/04/25 07:36:38;;;;;;;15.73;11.38;;;;;;;17.09;98.99;99262.31;5109292;28;20428;-32
2023/04/25 07:39:04;;;;;;;14.57;11.65;;;;;;;17.50;95.18;99273.53;5108949;28;20023;-34
2023/04/25 07:41:29;;;;;;;13.80;10.45;;;;;;;17.48;97.06;99264.94;5109331;28;20126;-34
2023/04/25 07:43:55;;;;;;;13.18;9.57;;;;;;;17.79;92.31;99260.03;5108832;28;20420;-32
2023/04/25 07:46:20;;;;;;;13.80;10.60;;;;;;;18.06;94.86;99264.91;5109069;28;20027;-33
2023/04/25 07:48:45;;;;;;;12.65;9.77;;;;;;;17.70;98.09;99259.06;5108950;28;20488;-35
2023/04/25 07:51:11;;;;;;;14.88;11.13;;;;;;;17.74;100.00;99265.50;5108766;28;20436;-33
2023/04/25 07:53:37;;;;;;;9.85;7.82;;;;;;;18.07;92.47;99266.50;5108891;28;20028;-32
2023/04/25 07:56:03;;;;;;;11.77;9.25;;;;;;;18.15;91.41;99267.75;5102599;28;20036;-33
2023/04/25 07:58:28;;;;;;;11.93;8.45;;;;;;;17.68;91.91;99247.75;5087989;28;20028;-33
2023/04/25 08:00:54;;;;;;;9.18;6.30;;;;;;;18.29;89.50;99257.06;5088174;28;20056;-32
2023/04/25 08:03:19;;;;;;;11.13;8.48;;;;;;;18.57;93.82;99246.44;5087471;28;20047;-33
2023/04/25 08:05:45;;;;;;;9.10;7.07;;;;;;;18.73;92.02;99250.50;5088183;28;20032;-33
2023/04/25 08:08:13;;;;;;;8.45;6.90;;;;;;;18.72;92.90;99238.13;5087424;28;20520;-33
2023/04/25 08:10:39;;;;;;;9.20;7.38;;;;;;;18.70;96.07;99243.00;5086333;28;20054;-32
2023/04/25 08:13:04;;;;;;;12.98;6.82;;;;;;;18.88;89.24;99246.84;5087465;28;20059;-33
2023/04/25 08:15:30;;;;;;;7.45;5.50;;;;;;;19.01;89.86;99250.69;5087592;28;20547;-32
2023/04/25 08:17:55;;;;;;;8.55;6.10;;;;;;;18.91;87.75;99245.44;5087407;28;20028;-32
2023/04/25 08:20:21;;;;;;;11.80;7.05;;;;;;;19.06;91.94;99248.69;5085471;28;20490;-33
2023/04/25 08:22:48;;;;;;;8.45;5.95;;;;;;;18.64;88.14;99246.88;5087518;28;20553;-32
2023/04/25 08:25:14;;;;;;;9.63;6.70;;;;;;;18.82;87.02;99243.41;5088054;28;20051;-33
2023/04/25 08:27:39;;;;;;;8.65;7.15;;;;;;;19.04;85.88;99244.66;5087599;28;20302;-33
2023/04/25 08:30:05;;;;;;;9.35;6.40;;;;;;;19.00;84.75;99241.78;5086846;28;20039;-32
2023/04/25 08:32:31;;;;;;;9.23;6.90;;;;;;;19.18;80.94;99240.09;5099292;28;20023;-32
2023/04/25 08:34:56;;;;;;;7.68;5.53;;;;;;;19.14;81.62;99244.50;5108159;28;20524;-32
2023/04/25 08:37:22;;;;;;;7.45;5.53;;;;;;;19.41;83.65;99238.38;5108046;28;20043;-34
2023/04/25 08:39:52;;;;;;;8.45;5.60;;;;;;;19.42;82.59;99234.56;5107452;28;20027;-33
2023/04/25 08:42:17;;;;;;;9.48;6.22;;;;;;;19.15;85.85;99234.50;5108300;27;20024;-32
2023/04/25 08:44:45;;;;;;;7.45;5.88;;;;;;;19.45;87.75;99235.88;5107900;28;20424;-32
2023/04/25 08:47:11;;;;;;;;;;;;;;;20.10;84.63;99250.38;5108200;28;20023;-34
2023/04/25 08:49:38;;;;;;;7.25;5.03;;;;;;;19.81;80.15;99241.44;5107775;28;19915;-32
2023/04/25 08:52:06;;;;;;;6.63;4.97;;;;;;;19.78;76.84;99255.59;5107837;28;20019;-33
2023/04/25 08:54:32;;;;;;;7.22;5.40;;;;;;;19.42;80.83;99250.00;5107787;28;20042;-34
2023/04/25 08:57:04;;;;;;;6.85;5.05;;;;;;;20.15;78.00;99234.03;5107298;28;20135;-32
2023/04/25 08:59:31;;;;;;;6.30;4.32;;;;;;;19.85;79.92;99249.78;5107515;28;20496;-32
2023/04/25 09:01:57;;;;;;;7.28;4.28;;;;;;;19.75;76.91;99247.25;5107781;28;20072;-33
2023/04/25 09:04:22;;;;;;;5.85;4.15;;;;;;;20.35;70.83;99228.19;5107468;28;20046;-33
2023/04/25 09:06:48;;;;;;;5.70;4.28;;;;;;;20.59;75.01;99238.75;5107351;28;20028;-32
2023/04/25 09:09:14;;;;;;;7.80;4.90;;;;;;;20.85;78.97;99246.31;5106560;28;20051;-33
2023/04/25 09:11:40;;;;;;;5.88;4.47;;;;;;;20.69;69.99;99243.16;5107019;28;20069;-32
2023/04/25 09:14:22;;;;;;;6.65;5.38;;;;;;;20.86;71.59;99243.31;5106771;28;20081;-33
2023/04/25 09:16:59;;;;;;;6.70;4.25;;;;;;;20.71;72.01;99237.44;5105276;28;20059;-33
2023/04/25 09:19:28;;;;;;;6.07;4.13;;;;;;;20.74;68.75;99251.19;5106301;28;20055;-33
2023/04/25 09:21:54;;;;;;;6.15;4.15;;;;;;;20.34;68.98;99236.59;5106471;28;20030;-33
2023/04/25 09:24:32;;;;;;;6.88;4.72;;;;;;;20.22;71.46;99240.63;5106923;28;20512;-33
2023/04/25 09:26:58;;;;;;;6.82;4.88;;;;;;;19.77;78.52;99221.50;5104029;28;20039;-32
2023/04/25 09:29:33;;;;;;;8.70;5.32;;;;;;;20.06;70.62;99220.38;5106703;28;20019;-33
2023/04/25 09:32:19;;;;;;;7.82;5.50;;;;;;;19.97;70.38;99217.59;5106731;28;20024;-35
2023/04/25 09:34:50;;;;;;;7.72;5.60;;;;;;;19.76;70.77;99213.72;5106589;28;20016;-34
2023/04/25 09:37:22;;;;;;;8.38;4.63;;;;;;;20.23;72.49;99203.53;5106971;28;20498;-33
2023/04/25 09:39:50;;;;;;;7.82;5.40;;;;;;;20.59;69.86;99210.88;5106768;28;20645;-33
2023/04/25 09:42:16;;;;;;;8.00;6.07;;;;;;;20.78;67.42;99225.06;5106870;28;20032;-33
2023/04/25 09:45:03;;;;;;;7.15;5.68;;;;;;;20.97;62.12;99215.97;5106714;28;20628;-33
2023/04/25 09:47:29;;;;;;;10.70;6.18;;;;;;;20.71;64.43;99213.84;5106742;27;20028;-33
2023/04/25 09:49:55;;;;;;;8.55;6.13;;;;;;;20.57;62.66;99223.91;5106719;28;20042;-32
2023/04/25 09:52:22;;;;;;;11.73;8.43;;;;;;;20.25;67.21;99204.03;5106285;28;20527;-32
2023/04/25 09:54:49;;;;;;;10.18;8.32;;;;;;;19.96;65.35;99199.78;5106526;28;20016;-32
2023/04/25 09:57:23;;;;;;;12.15;8.85;;;;;;;20.14;69.95;99184.50;5106346;28;20085;-32
2023/04/25 09:59:51;;;;;;;12.27;7.30;;;;;;;20.11;66.83;99205.97;5106533;28;20089;-34
2023/04/25 10:02:22;;;;;;;10.82;8.77;;;;;;;20.15;65.96;99201.56;5106515;28;20038;-32
2023/04/25 10:04:54;;;;;;;12.35;8.63;;;;;;;20.20;67.09;99175.16;5106490;28;20080;-34
2023/04/25 10:07:25;;;;;;;10.80;7.90;;;;;;;20.56;62.80;99195.22;5106175;28;20062;-34
2023/04/25 10:09:59;;;;;;;14.75;7.93;;;;;;;20.34;67.64;99185.94;5106404;28;20058;-32
2023/04/25 10:12:26;;;;;;;10.32;7.65;;;;;;;20.58;67.96;99183.00;5104820;28;20020;-32
2023/04/25 10:14:54;;;;;;;11.13;7.80;;;;;;;20.50;64.86;99188.31;5087793;28;20027;-33
2023/04/25 10:17:20;;;;;;;8.48;6.28;;;;;;;20.21;65.02;99178.69;5085497;28;20032;-33
2023/04/25 10:19:47;;;;;;;8.95;6.70;;;;;;;20.29;65.86;99169.84;5086096;28;20032;-32
2023/04/25 10:22:23;;;;;;;8.55;6.85;;;;;;;20.13;71.48;99146.91;5085435;28;20043;-33
2023/04/25 10:24:50;;;;;;;7.97;6.65;;;;;;;20.05;64.81;99146.53;5085603;28;20124;-33
2023/04/25 10:27:16;;;;;;;8.38;6.43;;;;;;;20.04;65.14;99169.28;5085934;28;20035;-32
2023/04/25 10:29:44;;;;;;;9.88;7.28;;;;;;;20.26;65.75;99175.84;5085376;28;20699;-32
2023/04/25 10:32:10;;;;;;;8.55;6.25;;;;;;;20.47;63.49;99171.59;5084666;28;20028;-34
2023/04/25 10:34:39;;;;;;;8.15;5.82;;;;;;;21.14;63.83;99175.38;5085746;28;20028;-32
2023/04/25 10:37:08;;;;;;;7.88;6.20;;;;;;;21.82;61.05;99159.75;5085478;28;20024;-35
2023/04/25 10:39:34;;;;;;;7.32;5.60;;;;;;;21.76;60.11;99154.75;5085634;28;20024;-32
2023/04/25 10:42:02;;;;;;;7.88;5.90;;;;;;;22.56;61.49;99162.72;5085475;28;20424;-32
2023/04/25 10:44:31;;;;;;;6.57;4.45;;;;;;;22.34;59.38;99169.91;5085439;28;20035;-33
2023/04/25 10:46:59;;;;;;;7.85;4.80;;;;;;;21.56;57.74;99140.69;5085488;28;20157;-33
2023/04/25 10:49:33;;;;;;;6.13;4.65;;;;;;;21.48;62.99;99143.38;5085274;28;20489;-32
2023/04/25 10:52:32;;;;;;;6.50;3.92;;;;;;;20.76;60.45;99150.59;5085486;28;20036;-32
2023/04/25 10:54:58;;;;;;;6.22;3.75;;;;;;;20.84;60.74;99145.25;5062376;28;20062;-32
2023/04/25 10:57:30;;;;;;;6.22;4.25;;;;;;;20.99;59.40;99135.94;5085174;28;20712;-33
2023/04/25 11:00:00;;;;;;;6.25;4.30;;;;;;;21.17;57.17;99139.53;5085576;28;20024;-32
2023/04/25 11:02:28;;;;;;;5.28;3.65;;;;;;;21.13;56.20;99138.56;5085367;28;20795;-32
2023/04/25 11:04:55;;;;;;;5.63;4.20;;;;;;;21.34;55.05;99129.88;5085224;28;20043;-33
2023/04/25 11:07:37;;;;;;;8.20;4.30;;;;;;;21.99;56.95;99114.75;5085163;28;20047;-35
2023/04/25 11:10:04;;;;;;;8.05;4.78;;;;;;;21.76;54.01;99114.06;5085430;28;20194;-32
2023/04/25 11:12:31;;;;;;;6.65;4.50;;;;;;;21.76;54.26;99123.00;5085178;28;20032;-33
2023/04/25 11:15:04;;;;;;;7.03;4.43;;;;;;;21.58;56.16;99127.59;5085250;28;20128;-33
2023/04/25 11:17:30;;;;;;;5.90;4.13;;;;;;;21.48;55.02;99122.47;5086788;28;20059;-32
2023/04/25 11:19:56;;;;;;;5.10;4.10;;;;;;;21.21;56.79;99131.59;5105195;28;20072;-33